sensor_id;sensor_type;location;lat;lon;timestamp;P1;durP1;ratioP1;P2;durP2;ratioP2
14984;SDS011;7588;62.368;25.902;2022-08-21T00:01:45;7.35;;;5.68;;
14984;SDS011;7588;62.368;25.902;2022-08-21T00:04:11;12.73;;;6.07;;
14984;SDS011;7588;62.368;25.902;2022-08-21T00:06:37;8.13;;;5.88;;
14984;SDS011;7588;62.368;25.902;2022-08-21T00:09:03;12.93;;;5.95;;
14984;SDS011;7588;62.368;25.902;2022-08-21T00:11:31;8.18;;;6.35;;
14984;SDS011;7588;62.368;25.902;2022-08-21T00:13:58;10.95;;;6.60;;
14984;SDS011;7588;62.368;25.902;2022-08-21T00:16:23;12.55;;;5.70;;
14984;SDS011;7588;62.368;25.902;2022-08-21T00:18:49;9.15;;;5.93;;
14984;SDS011;7588;62.368;25.902;2022-08-21T00:21:15;9.15;;;6.65;;
14984;SDS011;7588;62.368;25.902;2022-08-21T00:23:42;13.73;;;6.82;;
14984;SDS011;7588;62.368;25.902;2022-08-21T00:26:08;8.52;;;6.18;;
14984;SDS011;7588;62.368;25.902;2022-08-21T00:28:34;8.95;;;5.97;;
14984;SDS011;7588;62.368;25.902;2022-08-21T00:31:00;11.43;;;6.35;;
14984;SDS011;7588;62.368;25.902;2022-08-21T00:33:28;12.20;;;7.32;;
14984;SDS011;7588;62.368;25.902;2022-08-21T00:35:55;10.32;;;6.80;;
14984;SDS011;7588;62.368;25.902;2022-08-21T00:38:21;8.65;;;6.43;;
14984;SDS011;7588;62.368;25.902;2022-08-21T00:40:49;10.13;;;6.70;;
14984;SDS011;7588;62.368;25.902;2022-08-21T00:43:18;13.85;;;6.40;;
14984;SDS011;7588;62.368;25.902;2022-08-21T00:45:49;8.65;;;6.50;;
14984;SDS011;7588;62.368;25.902;2022-08-21T00:48:15;7.93;;;6.30;;
14984;SDS011;7588;62.368;25.902;2022-08-21T00:50:46;8.68;;;6.30;;
14984;SDS011;7588;62.368;25.902;2022-08-21T00:53:17;7.95;;;6.05;;
14984;SDS011;7588;62.368;25.902;2022-08-21T00:55:43;9.93;;;7.28;;
14984;SDS011;7588;62.368;25.902;2022-08-21T00:58:11;8.70;;;6.55;;
14984;SDS011;7588;62.368;25.902;2022-08-21T01:00:40;8.75;;;7.07;;
14984;SDS011;7588;62.368;25.902;2022-08-21T01:03:12;9.73;;;6.75;;
14984;SDS011;7588;62.368;25.902;2022-08-21T01:05:39;8.73;;;6.55;;
14984;SDS011;7588;62.368;25.902;2022-08-21T01:08:06;7.18;;;6.47;;
14984;SDS011;7588;62.368;25.902;2022-08-21T01:10:33;8.13;;;7.13;;
14984;SDS011;7588;62.368;25.902;2022-08-21T01:13:01;7.82;;;6.35;;
14984;SDS011;7588;62.368;25.902;2022-08-21T01:15:30;9.15;;;6.32;;
14984;SDS011;7588;62.368;25.902;2022-08-21T01:17:58;9.55;;;6.75;;
14984;SDS011;7588;62.368;25.902;2022-08-21T01:20:24;9.00;;;6.32;;
14984;SDS011;7588;62.368;25.902;2022-08-21T01:22:51;11.65;;;6.75;;
14984;SDS011;7588;62.368;25.902;2022-08-21T01:25:17;11.40;;;6.65;;
14984;SDS011;7588;62.368;25.902;2022-08-21T01:27:47;7.05;;;6.35;;
14984;SDS011;7588;62.368;25.902;2022-08-21T01:30:16;8.45;;;5.82;;
14984;SDS011;7588;62.368;25.902;2022-08-21T01:32:45;10.73;;;6.40;;
14984;SDS011;7588;62.368;25.902;2022-08-21T01:35:13;9.73;;;6.18;;
14984;SDS011;7588;62.368;25.902;2022-08-21T01:37:41;11.77;;;6.53;;
14984;SDS011;7588;62.368;25.902;2022-08-21T01:40:08;9.15;;;6.85;;
14984;SDS011;7588;62.368;25.902;2022-08-21T01:42:35;8.40;;;6.22;;
14984;SDS011;7588;62.368;25.902;2022-08-21T01:45:02;8.40;;;6.07;;
14984;SDS011;7588;62.368;25.902;2022-08-21T01:47:29;9.20;;;6.00;;
14984;SDS011;7588;62.368;25.902;2022-08-21T01:49:54;11.45;;;6.10;;
14984;SDS011;7588;62.368;25.902;2022-08-21T01:52:20;10.02;;;6.63;;
14984;SDS011;7588;62.368;25.902;2022-08-21T01:54:46;7.88;;;6.40;;
14984;SDS011;7588;62.368;25.902;2022-08-21T01:57:12;10.38;;;7.00;;
14984;SDS011;7588;62.368;25.902;2022-08-21T01:59:39;10.35;;;6.97;;
14984;SDS011;7588;62.368;25.902;2022-08-21T02:02:05;9.23;;;6.30;;
14984;SDS011;7588;62.368;25.902;2022-08-21T02:04:31;10.85;;;7.70;;
14984;SDS011;7588;62.368;25.902;2022-08-21T02:06:58;9.85;;;6.53;;
14984;SDS011;7588;62.368;25.902;2022-08-21T02:09:27;7.70;;;6.95;;
14984;SDS011;7588;62.368;25.902;2022-08-21T02:11:53;8.32;;;6.55;;
14984;SDS011;7588;62.368;25.902;2022-08-21T02:14:19;7.35;;;6.65;;
14984;SDS011;7588;62.368;25.902;2022-08-21T02:16:45;8.07;;;6.75;;
14984;SDS011;7588;62.368;25.902;2022-08-21T02:19:13;9.30;;;6.82;;
14984;SDS011;7588;62.368;25.902;2022-08-21T02:21:40;11.52;;;7.45;;
14984;SDS011;7588;62.368;25.902;2022-08-21T02:24:06;9.00;;;6.88;;
14984;SDS011;7588;62.368;25.902;2022-08-21T02:26:33;12.05;;;7.65;;
14984;SDS011;7588;62.368;25.902;2022-08-21T02:28:59;12.43;;;7.88;;
14984;SDS011;7588;62.368;25.902;2022-08-21T02:31:25;8.68;;;7.75;;
14984;SDS011;7588;62.368;25.902;2022-08-21T02:33:51;10.07;;;8.05;;
14984;SDS011;7588;62.368;25.902;2022-08-21T02:36:17;10.13;;;7.43;;
14984;SDS011;7588;62.368;25.902;2022-08-21T02:38:43;8.73;;;7.32;;
14984;SDS011;7588;62.368;25.902;2022-08-21T02:41:10;8.90;;;8.10;;
14984;SDS011;7588;62.368;25.902;2022-08-21T02:43:41;8.43;;;7.63;;
14984;SDS011;7588;62.368;25.902;2022-08-21T02:46:08;8.90;;;8.00;;
14984;SDS011;7588;62.368;25.902;2022-08-21T02:48:35;8.52;;;7.28;;
14984;SDS011;7588;62.368;25.902;2022-08-21T02:53:32;8.65;;;7.30;;
14984;SDS011;7588;62.368;25.902;2022-08-21T02:56:00;8.60;;;7.75;;
14984;SDS011;7588;62.368;25.902;2022-08-21T02:58:28;13.30;;;8.13;;
14984;SDS011;7588;62.368;25.902;2022-08-21T03:00:59;8.15;;;7.32;;
14984;SDS011;7588;62.368;25.902;2022-08-21T03:03:26;11.88;;;7.80;;
14984;SDS011;7588;62.368;25.902;2022-08-21T03:05:53;10.48;;;7.75;;
14984;SDS011;7588;62.368;25.902;2022-08-21T03:08:21;8.50;;;7.60;;
14984;SDS011;7588;62.368;25.902;2022-08-21T03:10:48;13.73;;;7.15;;
14984;SDS011;7588;62.368;25.902;2022-08-21T03:13:16;8.45;;;6.80;;
14984;SDS011;7588;62.368;25.902;2022-08-21T03:15:43;9.10;;;7.32;;
14984;SDS011;7588;62.368;25.902;2022-08-21T03:18:09;11.30;;;7.30;;
14984;SDS011;7588;62.368;25.902;2022-08-21T03:20:36;7.28;;;6.57;;
14984;SDS011;7588;62.368;25.902;2022-08-21T03:23:04;9.60;;;7.00;;
14984;SDS011;7588;62.368;25.902;2022-08-21T03:25:30;7.40;;;6.70;;
14984;SDS011;7588;62.368;25.902;2022-08-21T03:27:57;8.85;;;6.93;;
14984;SDS011;7588;62.368;25.902;2022-08-21T03:30:28;7.15;;;6.45;;
14984;SDS011;7588;62.368;25.902;2022-08-21T03:32:56;9.77;;;7.20;;
14984;SDS011;7588;62.368;25.902;2022-08-21T03:35:26;8.55;;;7.55;;
14984;SDS011;7588;62.368;25.902;2022-08-21T03:37:53;9.55;;;7.32;;
14984;SDS011;7588;62.368;25.902;2022-08-21T03:40:19;10.98;;;6.95;;
14984;SDS011;7588;62.368;25.902;2022-08-21T03:42:46;10.82;;;7.53;;
14984;SDS011;7588;62.368;25.902;2022-08-21T03:45:13;7.55;;;6.07;;
14984;SDS011;7588;62.368;25.902;2022-08-21T03:48:00;9.93;;;7.05;;
14984;SDS011;7588;62.368;25.902;2022-08-21T03:50:29;7.70;;;6.80;;
14984;SDS011;7588;62.368;25.902;2022-08-21T03:52:58;11.25;;;6.50;;
14984;SDS011;7588;62.368;25.902;2022-08-21T03:55:24;9.77;;;6.10;;
14984;SDS011;7588;62.368;25.902;2022-08-21T03:57:51;6.65;;;5.68;;
14984;SDS011;7588;62.368;25.902;2022-08-21T04:00:17;10.05;;;6.15;;
14984;SDS011;7588;62.368;25.902;2022-08-21T04:02:44;7.20;;;5.97;;
14984;SDS011;7588;62.368;25.902;2022-08-21T04:05:11;9.70;;;5.80;;
14984;SDS011;7588;62.368;25.902;2022-08-21T04:07:38;8.00;;;5.78;;
14984;SDS011;7588;62.368;25.902;2022-08-21T04:10:05;7.55;;;5.60;;
14984;SDS011;7588;62.368;25.902;2022-08-21T04:12:31;7.20;;;5.88;;
14984;SDS011;7588;62.368;25.902;2022-08-21T04:14:57;9.40;;;6.05;;
14984;SDS011;7588;62.368;25.902;2022-08-21T04:17:22;9.55;;;5.78;;
14984;SDS011;7588;62.368;25.902;2022-08-21T04:19:48;9.50;;;6.57;;
14984;SDS011;7588;62.368;25.902;2022-08-21T04:22:15;6.82;;;5.63;;
14984;SDS011;7588;62.368;25.902;2022-08-21T04:24:41;10.75;;;5.70;;
14984;SDS011;7588;62.368;25.902;2022-08-21T04:27:07;9.80;;;6.10;;
14984;SDS011;7588;62.368;25.902;2022-08-21T04:29:33;7.22;;;5.13;;
14984;SDS011;7588;62.368;25.902;2022-08-21T04:31:58;9.25;;;6.30;;
14984;SDS011;7588;62.368;25.902;2022-08-21T04:34:24;9.85;;;6.40;;
14984;SDS011;7588;62.368;25.902;2022-08-21T04:36:50;7.30;;;6.18;;
14984;SDS011;7588;62.368;25.902;2022-08-21T04:39:16;8.20;;;6.03;;
14984;SDS011;7588;62.368;25.902;2022-08-21T04:41:42;10.43;;;6.35;;
14984;SDS011;7588;62.368;25.902;2022-08-21T04:44:07;6.28;;;5.68;;
14984;SDS011;7588;62.368;25.902;2022-08-21T04:46:33;9.35;;;6.40;;
14984;SDS011;7588;62.368;25.902;2022-08-21T04:48:59;10.93;;;5.43;;
14984;SDS011;7588;62.368;25.902;2022-08-21T04:51:27;6.53;;;5.88;;
14984;SDS011;7588;62.368;25.902;2022-08-21T04:54:02;7.75;;;5.60;;
14984;SDS011;7588;62.368;25.902;2022-08-21T04:56:36;7.63;;;5.88;;
14984;SDS011;7588;62.368;25.902;2022-08-21T04:59:26;9.18;;;6.22;;
14984;SDS011;7588;62.368;25.902;2022-08-21T05:01:56;7.85;;;5.30;;
14984;SDS011;7588;62.368;25.902;2022-08-21T05:04:25;11.10;;;6.40;;
14984;SDS011;7588;62.368;25.902;2022-08-21T05:06:54;9.10;;;5.63;;
14984;SDS011;7588;62.368;25.902;2022-08-21T05:09:25;7.88;;;5.55;;
14984;SDS011;7588;62.368;25.902;2022-08-21T05:11:52;8.48;;;5.05;;
14984;SDS011;7588;62.368;25.902;2022-08-21T05:14:18;7.18;;;5.22;;
14984;SDS011;7588;62.368;25.902;2022-08-21T05:16:44;8.82;;;6.13;;
14984;SDS011;7588;62.368;25.902;2022-08-21T05:19:10;8.15;;;5.45;;
14984;SDS011;7588;62.368;25.902;2022-08-21T05:21:42;10.27;;;5.60;;
14984;SDS011;7588;62.368;25.902;2022-08-21T05:24:10;8.68;;;5.45;;
14984;SDS011;7588;62.368;25.902;2022-08-21T05:26:36;9.40;;;5.68;;
14984;SDS011;7588;62.368;25.902;2022-08-21T05:29:03;12.27;;;5.78;;
14984;SDS011;7588;62.368;25.902;2022-08-21T05:31:28;8.68;;;5.40;;
14984;SDS011;7588;62.368;25.902;2022-08-21T05:33:54;10.30;;;5.72;;
14984;SDS011;7588;62.368;25.902;2022-08-21T05:36:21;13.18;;;5.65;;
14984;SDS011;7588;62.368;25.902;2022-08-21T05:38:47;9.35;;;5.85;;
14984;SDS011;7588;62.368;25.902;2022-08-21T05:41:13;8.88;;;5.63;;
14984;SDS011;7588;62.368;25.902;2022-08-21T05:43:38;8.77;;;5.95;;
14984;SDS011;7588;62.368;25.902;2022-08-21T05:46:06;10.23;;;6.72;;
14984;SDS011;7588;62.368;25.902;2022-08-21T05:48:32;10.68;;;5.88;;
14984;SDS011;7588;62.368;25.902;2022-08-21T05:51:04;11.05;;;6.07;;
14984;SDS011;7588;62.368;25.902;2022-08-21T05:53:33;10.25;;;5.65;;
14984;SDS011;7588;62.368;25.902;2022-08-21T05:55:58;9.23;;;6.22;;
14984;SDS011;7588;62.368;25.902;2022-08-21T05:58:24;8.23;;;5.50;;
14984;SDS011;7588;62.368;25.902;2022-08-21T06:00:51;8.45;;;5.80;;
14984;SDS011;7588;62.368;25.902;2022-08-21T06:03:22;9.63;;;6.20;;
14984;SDS011;7588;62.368;25.902;2022-08-21T06:05:51;7.30;;;5.72;;
14984;SDS011;7588;62.368;25.902;2022-08-21T06:08:18;10.48;;;5.80;;
14984;SDS011;7588;62.368;25.902;2022-08-21T06:10:45;10.70;;;5.90;;
14984;SDS011;7588;62.368;25.902;2022-08-21T06:13:11;9.75;;;5.60;;
14984;SDS011;7588;62.368;25.902;2022-08-21T06:15:38;10.07;;;5.65;;
14984;SDS011;7588;62.368;25.902;2022-08-21T06:18:03;11.00;;;6.05;;
14984;SDS011;7588;62.368;25.902;2022-08-21T06:20:29;9.57;;;5.68;;
14984;SDS011;7588;62.368;25.902;2022-08-21T06:22:56;11.25;;;6.03;;
14984;SDS011;7588;62.368;25.902;2022-08-21T06:25:22;12.63;;;5.70;;
14984;SDS011;7588;62.368;25.902;2022-08-21T06:27:49;8.68;;;5.05;;
14984;SDS011;7588;62.368;25.902;2022-08-21T06:30:15;12.73;;;5.68;;
14984;SDS011;7588;62.368;25.902;2022-08-21T06:32:41;14.68;;;5.55;;
14984;SDS011;7588;62.368;25.902;2022-08-21T06:35:07;14.25;;;5.82;;
14984;SDS011;7588;62.368;25.902;2022-08-21T06:37:33;14.70;;;6.30;;
14984;SDS011;7588;62.368;25.902;2022-08-21T06:39:59;10.25;;;5.55;;
14984;SDS011;7588;62.368;25.902;2022-08-21T06:42:25;11.52;;;5.40;;
14984;SDS011;7588;62.368;25.902;2022-08-21T06:44:53;10.13;;;5.00;;
14984;SDS011;7588;62.368;25.902;2022-08-21T06:47:18;11.07;;;5.30;;
14984;SDS011;7588;62.368;25.902;2022-08-21T06:49:44;12.02;;;5.10;;
14984;SDS011;7588;62.368;25.902;2022-08-21T06:52:11;9.82;;;4.75;;
14984;SDS011;7588;62.368;25.902;2022-08-21T06:54:38;13.32;;;5.60;;
14984;SDS011;7588;62.368;25.902;2022-08-21T06:57:05;12.13;;;4.85;;
14984;SDS011;7588;62.368;25.902;2022-08-21T06:59:31;10.52;;;5.68;;
14984;SDS011;7588;62.368;25.902;2022-08-21T07:01:57;10.45;;;5.32;;
14984;SDS011;7588;62.368;25.902;2022-08-21T07:04:23;11.48;;;5.07;;
14984;SDS011;7588;62.368;25.902;2022-08-21T07:06:50;9.63;;;4.93;;
14984;SDS011;7588;62.368;25.902;2022-08-21T07:09:16;10.93;;;4.95;;
14984;SDS011;7588;62.368;25.902;2022-08-21T07:11:41;8.07;;;4.57;;
14984;SDS011;7588;62.368;25.902;2022-08-21T07:14:09;10.55;;;4.95;;
14984;SDS011;7588;62.368;25.902;2022-08-21T07:16:35;12.98;;;5.00;;
14984;SDS011;7588;62.368;25.902;2022-08-21T07:19:00;11.32;;;4.70;;
14984;SDS011;7588;62.368;25.902;2022-08-21T07:21:26;14.48;;;4.80;;
14984;SDS011;7588;62.368;25.902;2022-08-21T07:23:52;11.68;;;5.25;;
14984;SDS011;7588;62.368;25.902;2022-08-21T07:26:19;8.77;;;5.00;;
14984;SDS011;7588;62.368;25.902;2022-08-21T07:28:46;9.38;;;4.72;;
14984;SDS011;7588;62.368;25.902;2022-08-21T07:31:13;10.90;;;4.88;;
14984;SDS011;7588;62.368;25.902;2022-08-21T07:33:41;11.40;;;4.40;;
14984;SDS011;7588;62.368;25.902;2022-08-21T07:36:07;12.68;;;4.70;;
14984;SDS011;7588;62.368;25.902;2022-08-21T07:38:34;10.55;;;5.13;;
14984;SDS011;7588;62.368;25.902;2022-08-21T07:41:00;8.80;;;4.40;;
14984;SDS011;7588;62.368;25.902;2022-08-21T07:43:27;11.05;;;5.13;;
14984;SDS011;7588;62.368;25.902;2022-08-21T07:45:54;13.18;;;4.97;;
14984;SDS011;7588;62.368;25.902;2022-08-21T07:48:21;14.98;;;5.43;;
14984;SDS011;7588;62.368;25.902;2022-08-21T07:50:47;13.98;;;4.45;;
14984;SDS011;7588;62.368;25.902;2022-08-21T07:53:13;10.52;;;5.15;;
14984;SDS011;7588;62.368;25.902;2022-08-21T07:55:39;16.00;;;5.35;;
14984;SDS011;7588;62.368;25.902;2022-08-21T07:58:05;10.60;;;4.80;;
14984;SDS011;7588;62.368;25.902;2022-08-21T08:00:31;16.65;;;5.57;;
14984;SDS011;7588;62.368;25.902;2022-08-21T08:02:57;9.80;;;4.40;;
14984;SDS011;7588;62.368;25.902;2022-08-21T08:05:24;9.38;;;4.40;;
14984;SDS011;7588;62.368;25.902;2022-08-21T08:07:52;12.68;;;5.00;;
14984;SDS011;7588;62.368;25.902;2022-08-21T08:10:18;11.00;;;4.78;;
14984;SDS011;7588;62.368;25.902;2022-08-21T08:12:44;12.73;;;5.00;;
14984;SDS011;7588;62.368;25.902;2022-08-21T08:15:11;12.45;;;4.80;;
14984;SDS011;7588;62.368;25.902;2022-08-21T08:17:42;13.10;;;4.88;;
14984;SDS011;7588;62.368;25.902;2022-08-21T08:20:09;12.40;;;4.82;;
14984;SDS011;7588;62.368;25.902;2022-08-21T08:22:36;15.35;;;5.13;;
14984;SDS011;7588;62.368;25.902;2022-08-21T08:25:04;11.75;;;5.32;;
14984;SDS011;7588;62.368;25.902;2022-08-21T08:27:31;13.50;;;5.38;;
14984;SDS011;7588;62.368;25.902;2022-08-21T08:29:57;10.98;;;4.97;;
14984;SDS011;7588;62.368;25.902;2022-08-21T08:32:23;13.90;;;4.97;;
14984;SDS011;7588;62.368;25.902;2022-08-21T08:34:49;12.00;;;5.30;;
14984;SDS011;7588;62.368;25.902;2022-08-21T08:37:17;12.68;;;4.95;;
14984;SDS011;7588;62.368;25.902;2022-08-21T08:39:44;12.35;;;4.40;;
14984;SDS011;7588;62.368;25.902;2022-08-21T08:42:43;14.45;;;4.78;;
14984;SDS011;7588;62.368;25.902;2022-08-21T08:45:03;15.10;;;4.80;;
14984;SDS011;7588;62.368;25.902;2022-08-21T08:47:30;12.43;;;4.78;;
14984;SDS011;7588;62.368;25.902;2022-08-21T08:52:41;12.88;;;4.55;;
14984;SDS011;7588;62.368;25.902;2022-08-21T08:55:13;17.13;;;5.47;;
14984;SDS011;7588;62.368;25.902;2022-08-21T08:57:46;18.88;;;5.47;;
14984;SDS011;7588;62.368;25.902;2022-08-21T09:00:14;10.70;;;4.68;;
14984;SDS011;7588;62.368;25.902;2022-08-21T09:02:42;15.32;;;5.28;;
14984;SDS011;7588;62.368;25.902;2022-08-21T09:05:14;17.10;;;4.97;;
14984;SDS011;7588;62.368;25.902;2022-08-21T09:19:53;16.20;;;4.65;;
14984;SDS011;7588;62.368;25.902;2022-08-21T09:22:08;14.93;;;5.10;;
14984;SDS011;7588;62.368;25.902;2022-08-21T09:27:23;12.77;;;4.68;;
14984;SDS011;7588;62.368;25.902;2022-08-21T09:29:51;14.65;;;4.72;;
14984;SDS011;7588;62.368;25.902;2022-08-21T09:32:20;14.82;;;4.78;;
14984;SDS011;7588;62.368;25.902;2022-08-21T09:40:37;13.68;;;4.97;;
14984;SDS011;7588;62.368;25.902;2022-08-21T09:45:37;11.73;;;4.70;;
14984;SDS011;7588;62.368;25.902;2022-08-21T09:48:11;18.08;;;4.85;;
14984;SDS011;7588;62.368;25.902;2022-08-21T09:50:44;12.25;;;5.30;;
14984;SDS011;7588;62.368;25.902;2022-08-21T09:53:28;16.83;;;5.15;;
14984;SDS011;7588;62.368;25.902;2022-08-21T09:55:56;18.45;;;5.20;;
14984;SDS011;7588;62.368;25.902;2022-08-21T09:58:49;14.60;;;4.50;;
14984;SDS011;7588;62.368;25.902;2022-08-21T10:01:21;19.10;;;5.10;;
14984;SDS011;7588;62.368;25.902;2022-08-21T10:04:01;10.63;;;4.70;;
14984;SDS011;7588;62.368;25.902;2022-08-21T10:06:32;11.85;;;4.65;;
14984;SDS011;7588;62.368;25.902;2022-08-21T10:09:07;13.30;;;4.32;;
14984;SDS011;7588;62.368;25.902;2022-08-21T10:11:34;17.40;;;5.18;;
14984;SDS011;7588;62.368;25.902;2022-08-21T10:19:19;15.13;;;4.43;;
14984;SDS011;7588;62.368;25.902;2022-08-21T10:25:02;18.20;;;4.80;;
14984;SDS011;7588;62.368;25.902;2022-08-21T10:28:00;15.13;;;4.55;;
14984;SDS011;7588;62.368;25.902;2022-08-21T10:31:00;14.93;;;5.05;;
14984;SDS011;7588;62.368;25.902;2022-08-21T10:33:33;20.55;;;4.28;;
14984;SDS011;7588;62.368;25.902;2022-08-21T10:36:25;22.00;;;4.60;;
14984;SDS011;7588;62.368;25.902;2022-08-21T10:39:06;16.83;;;4.50;;
14984;SDS011;7588;62.368;25.902;2022-08-21T11:01:07;14.05;;;4.10;;
14984;SDS011;7588;62.368;25.902;2022-08-21T11:03:50;14.90;;;4.68;;
14984;SDS011;7588;62.368;25.902;2022-08-21T11:06:27;9.75;;;4.30;;
14984;SDS011;7588;62.368;25.902;2022-08-21T11:08:57;17.48;;;4.53;;
14984;SDS011;7588;62.368;25.902;2022-08-21T11:14:13;15.95;;;4.60;;
14984;SDS011;7588;62.368;25.902;2022-08-21T11:16:58;14.32;;;4.55;;
14984;SDS011;7588;62.368;25.902;2022-08-21T11:19:28;13.48;;;4.65;;
14984;SDS011;7588;62.368;25.902;2022-08-21T11:25:00;11.82;;;3.47;;
14984;SDS011;7588;62.368;25.902;2022-08-21T11:29:59;9.52;;;4.35;;
14984;SDS011;7588;62.368;25.902;2022-08-21T11:35:32;10.23;;;4.07;;
14984;SDS011;7588;62.368;25.902;2022-08-21T11:45:55;11.88;;;4.07;;
14984;SDS011;7588;62.368;25.902;2022-08-21T11:51:00;11.77;;;4.72;;
14984;SDS011;7588;62.368;25.902;2022-08-21T11:56:06;12.50;;;4.50;;
14984;SDS011;7588;62.368;25.902;2022-08-21T11:58:41;13.38;;;4.25;;
14984;SDS011;7588;62.368;25.902;2022-08-21T12:01:19;11.05;;;4.45;;
14984;SDS011;7588;62.368;25.902;2022-08-21T12:04:25;14.27;;;4.47;;
14984;SDS011;7588;62.368;25.902;2022-08-21T12:06:43;15.80;;;5.00;;
14984;SDS011;7588;62.368;25.902;2022-08-21T12:11:59;13.85;;;5.07;;
14984;SDS011;7588;62.368;25.902;2022-08-21T12:17:09;12.45;;;4.30;;
14984;SDS011;7588;62.368;25.902;2022-08-21T12:20:04;14.35;;;3.85;;
14984;SDS011;7588;62.368;25.902;2022-08-21T12:22:47;11.32;;;4.30;;
14984;SDS011;7588;62.368;25.902;2022-08-21T12:25:36;11.88;;;4.18;;
14984;SDS011;7588;62.368;25.902;2022-08-21T12:28:21;17.58;;;4.53;;
14984;SDS011;7588;62.368;25.902;2022-08-21T12:30:48;13.45;;;4.18;;
14984;SDS011;7588;62.368;25.902;2022-08-21T12:33:29;13.07;;;4.28;;
14984;SDS011;7588;62.368;25.902;2022-08-21T12:36:11;12.50;;;4.47;;
14984;SDS011;7588;62.368;25.902;2022-08-21T12:38:42;15.25;;;4.90;;
14984;SDS011;7588;62.368;25.902;2022-08-21T12:41:18;16.17;;;4.38;;
14984;SDS011;7588;62.368;25.902;2022-08-21T12:44:10;12.98;;;4.40;;
14984;SDS011;7588;62.368;25.902;2022-08-21T12:46:44;14.20;;;4.10;;
14984;SDS011;7588;62.368;25.902;2022-08-21T12:49:14;15.10;;;3.65;;
14984;SDS011;7588;62.368;25.902;2022-08-21T12:51:57;8.60;;;3.83;;
14984;SDS011;7588;62.368;25.902;2022-08-21T12:54:28;14.40;;;4.35;;
14984;SDS011;7588;62.368;25.902;2022-08-21T12:57:00;10.38;;;4.22;;
14984;SDS011;7588;62.368;25.902;2022-08-21T12:59:27;17.20;;;4.30;;
14984;SDS011;7588;62.368;25.902;2022-08-21T13:01:54;15.25;;;4.75;;
14984;SDS011;7588;62.368;25.902;2022-08-21T13:04:33;9.10;;;3.78;;
14984;SDS011;7588;62.368;25.902;2022-08-21T13:07:05;13.68;;;4.70;;
14984;SDS011;7588;62.368;25.902;2022-08-21T13:09:39;10.88;;;4.38;;
14984;SDS011;7588;62.368;25.902;2022-08-21T13:12:25;14.57;;;4.00;;
14984;SDS011;7588;62.368;25.902;2022-08-21T13:14:55;10.48;;;4.07;;
14984;SDS011;7588;62.368;25.902;2022-08-21T13:17:23;8.77;;;4.32;;
14984;SDS011;7588;62.368;25.902;2022-08-21T13:20:05;14.23;;;4.53;;
14984;SDS011;7588;62.368;25.902;2022-08-21T13:22:40;16.95;;;4.85;;
14984;SDS011;7588;62.368;25.902;2022-08-21T13:25:11;12.68;;;4.47;;
14984;SDS011;7588;62.368;25.902;2022-08-21T13:27:38;10.45;;;4.55;;
14984;SDS011;7588;62.368;25.902;2022-08-21T13:30:10;19.33;;;4.68;;
14984;SDS011;7588;62.368;25.902;2022-08-21T13:32:42;9.43;;;4.25;;
14984;SDS011;7588;62.368;25.902;2022-08-21T13:35:15;15.18;;;4.13;;
14984;SDS011;7588;62.368;25.902;2022-08-21T13:37:44;12.82;;;5.03;;
14984;SDS011;7588;62.368;25.902;2022-08-21T13:40:14;13.57;;;4.43;;
14984;SDS011;7588;62.368;25.902;2022-08-21T13:42:50;9.93;;;4.15;;
14984;SDS011;7588;62.368;25.902;2022-08-21T13:45:25;14.82;;;4.57;;
14984;SDS011;7588;62.368;25.902;2022-08-21T13:47:56;12.57;;;4.47;;
14984;SDS011;7588;62.368;25.902;2022-08-21T13:50:24;10.55;;;4.28;;
14984;SDS011;7588;62.368;25.902;2022-08-21T13:52:58;11.98;;;4.32;;
14984;SDS011;7588;62.368;25.902;2022-08-21T13:55:34;13.32;;;4.30;;
14984;SDS011;7588;62.368;25.902;2022-08-21T13:58:04;17.27;;;4.88;;
14984;SDS011;7588;62.368;25.902;2022-08-21T14:00:31;13.70;;;4.65;;
14984;SDS011;7588;62.368;25.902;2022-08-21T14:03:07;15.52;;;5.25;;
14984;SDS011;7588;62.368;25.902;2022-08-21T14:05:36;12.43;;;4.30;;
14984;SDS011;7588;62.368;25.902;2022-08-21T14:08:11;12.02;;;4.78;;
14984;SDS011;7588;62.368;25.902;2022-08-21T14:10:49;13.90;;;4.30;;
14984;SDS011;7588;62.368;25.902;2022-08-21T14:15:59;11.20;;;4.15;;
14984;SDS011;7588;62.368;25.902;2022-08-21T14:18:27;12.32;;;4.25;;
14984;SDS011;7588;62.368;25.902;2022-08-21T14:21:04;12.38;;;4.65;;
14984;SDS011;7588;62.368;25.902;2022-08-21T14:23:32;13.60;;;4.45;;
14984;SDS011;7588;62.368;25.902;2022-08-21T14:25:58;10.05;;;4.68;;
14984;SDS011;7588;62.368;25.902;2022-08-21T14:28:27;14.45;;;5.38;;
14984;SDS011;7588;62.368;25.902;2022-08-21T14:31:14;17.25;;;5.00;;
14984;SDS011;7588;62.368;25.902;2022-08-21T14:33:43;15.05;;;4.88;;
14984;SDS011;7588;62.368;25.902;2022-08-21T14:36:10;12.70;;;4.63;;
14984;SDS011;7588;62.368;25.902;2022-08-21T14:38:37;9.75;;;4.18;;
14984;SDS011;7588;62.368;25.902;2022-08-21T14:41:08;14.30;;;5.43;;
14984;SDS011;7588;62.368;25.902;2022-08-21T14:43:47;8.93;;;4.45;;
14984;SDS011;7588;62.368;25.902;2022-08-21T14:46:14;12.90;;;4.57;;
14984;SDS011;7588;62.368;25.902;2022-08-21T14:48:47;12.10;;;5.03;;
14984;SDS011;7588;62.368;25.902;2022-08-21T14:51:13;10.45;;;4.82;;
14984;SDS011;7588;62.368;25.902;2022-08-21T14:53:39;14.32;;;4.85;;
14984;SDS011;7588;62.368;25.902;2022-08-21T14:56:05;15.63;;;5.18;;
14984;SDS011;7588;62.368;25.902;2022-08-21T14:58:38;16.20;;;4.60;;
14984;SDS011;7588;62.368;25.902;2022-08-21T15:01:10;11.63;;;5.25;;
14984;SDS011;7588;62.368;25.902;2022-08-21T15:03:38;9.77;;;5.03;;
14984;SDS011;7588;62.368;25.902;2022-08-21T15:06:06;9.55;;;4.70;;
14984;SDS011;7588;62.368;25.902;2022-08-21T15:08:32;7.82;;;4.35;;
14984;SDS011;7588;62.368;25.902;2022-08-21T15:10:58;13.98;;;5.53;;
14984;SDS011;7588;62.368;25.902;2022-08-21T15:13:26;12.57;;;5.07;;
14984;SDS011;7588;62.368;25.902;2022-08-21T15:15:53;17.73;;;5.30;;
14984;SDS011;7588;62.368;25.902;2022-08-21T15:18:22;12.88;;;4.70;;
14984;SDS011;7588;62.368;25.902;2022-08-21T15:20:49;12.85;;;5.30;;
14984;SDS011;7588;62.368;25.902;2022-08-21T15:23:16;12.68;;;5.13;;
14984;SDS011;7588;62.368;25.902;2022-08-21T15:25:43;13.65;;;5.63;;
14984;SDS011;7588;62.368;25.902;2022-08-21T15:28:11;13.18;;;5.60;;
14984;SDS011;7588;62.368;25.902;2022-08-21T15:30:41;11.65;;;5.30;;
14984;SDS011;7588;62.368;25.902;2022-08-21T15:33:07;11.63;;;5.47;;
14984;SDS011;7588;62.368;25.902;2022-08-21T15:35:34;9.80;;;5.13;;
14984;SDS011;7588;62.368;25.902;2022-08-21T15:38:00;11.98;;;5.72;;
14984;SDS011;7588;62.368;25.902;2022-08-21T15:40:26;13.20;;;5.50;;
14984;SDS011;7588;62.368;25.902;2022-08-21T15:42:55;15.68;;;6.13;;
14984;SDS011;7588;62.368;25.902;2022-08-21T15:45:24;12.30;;;5.20;;
14984;SDS011;7588;62.368;25.902;2022-08-21T15:47:50;11.57;;;5.90;;
14984;SDS011;7588;62.368;25.902;2022-08-21T15:50:17;11.25;;;4.55;;
14984;SDS011;7588;62.368;25.902;2022-08-21T15:52:43;14.82;;;5.32;;
14984;SDS011;7588;62.368;25.902;2022-08-21T15:55:09;9.85;;;5.47;;
14984;SDS011;7588;62.368;25.902;2022-08-21T15:57:36;11.18;;;5.30;;
14984;SDS011;7588;62.368;25.902;2022-08-21T16:00:12;13.13;;;5.70;;
14984;SDS011;7588;62.368;25.902;2022-08-21T16:02:48;10.77;;;5.75;;
14984;SDS011;7588;62.368;25.902;2022-08-21T16:05:17;13.75;;;5.43;;
14984;SDS011;7588;62.368;25.902;2022-08-21T16:07:44;14.48;;;6.03;;
14984;SDS011;7588;62.368;25.902;2022-08-21T16:10:11;10.52;;;5.53;;
14984;SDS011;7588;62.368;25.902;2022-08-21T16:12:38;13.63;;;6.00;;
14984;SDS011;7588;62.368;25.902;2022-08-21T16:15:09;11.43;;;5.72;;
14984;SDS011;7588;62.368;25.902;2022-08-21T16:17:36;12.95;;;5.63;;
14984;SDS011;7588;62.368;25.902;2022-08-21T16:20:08;13.38;;;6.15;;